sensor_id;sensor_type;location;lat;lon;timestamp;temperature;humidity
18779;DHT22;9518;51.720;14.384;2023-06-14T00:02:00;12.80;1.00
18779;DHT22;9518;51.720;14.384;2023-06-14T00:04:27;12.70;1.00
18779;DHT22;9518;51.720;14.384;2023-06-14T00:06:55;12.50;1.00
18779;DHT22;9518;51.720;14.384;2023-06-14T00:09:24;12.40;1.00
18779;DHT22;9518;51.720;14.384;2023-06-14T00:11:51;12.30;99.90
18779;DHT22;9518;51.720;14.384;2023-06-14T00:14:18;12.20;99.90
18779;DHT22;9518;51.720;14.384;2023-06-14T00:16:47;12.10;99.90
18779;DHT22;9518;51.720;14.384;2023-06-14T00:19:14;12.00;99.90
18779;DHT22;9518;51.720;14.384;2023-06-14T00:21:41;11.90;99.90
18779;DHT22;9518;51.720;14.384;2023-06-14T00:24:08;11.80;99.90
18779;DHT22;9518;51.720;14.384;2023-06-14T00:26:35;11.70;1.00
18779;DHT22;9518;51.720;14.384;2023-06-14T00:29:03;11.70;1.00
18779;DHT22;9518;51.720;14.384;2023-06-14T00:31:30;11.60;1.00
18779;DHT22;9518;51.720;14.384;2023-06-14T00:33:58;11.60;1.00
18779;DHT22;9518;51.720;14.384;2023-06-14T00:36:26;11.50;1.00
18779;DHT22;9518;51.720;14.384;2023-06-14T00:38:53;11.40;1.00
18779;DHT22;9518;51.720;14.384;2023-06-14T00:41:21;11.30;1.00
18779;DHT22;9518;51.720;14.384;2023-06-14T00:43:48;11.30;1.00
18779;DHT22;9518;51.720;14.384;2023-06-14T00:46:15;11.20;1.00
18779;DHT22;9518;51.720;14.384;2023-06-14T00:48:42;11.10;1.00
18779;DHT22;9518;51.720;14.384;2023-06-14T00:51:11;11.00;1.00
18779;DHT22;9518;51.720;14.384;2023-06-14T00:53:38;11.00;1.00
18779;DHT22;9518;51.720;14.384;2023-06-14T00:56:06;10.90;1.00
18779;DHT22;9518;51.720;14.384;2023-06-14T00:58:33;10.90;19.70
18779;DHT22;9518;51.720;14.384;2023-06-14T01:01:00;10.80;99.90
18779;DHT22;9518;51.720;14.384;2023-06-14T01:03:28;10.70;14.70
18779;DHT22;9518;51.720;14.384;2023-06-14T01:06:02;10.70;93.80
18779;DHT22;9518;51.720;14.384;2023-06-14T01:08:44;10.70;99.90
18779;DHT22;9518;51.720;14.384;2023-06-14T01:11:18;10.60;1.00
18779;DHT22;9518;51.720;14.384;2023-06-14T01:13:48;10.60;1.00
18779;DHT22;9518;51.720;14.384;2023-06-14T01:16:16;10.50;1.00
18779;DHT22;9518;51.720;14.384;2023-06-14T01:18:44;10.50;1.00
18779;DHT22;9518;51.720;14.384;2023-06-14T01:21:20;10.40;1.00
18779;DHT22;9518;51.720;14.384;2023-06-14T01:23:49;10.30;1.00
18779;DHT22;9518;51.720;14.384;2023-06-14T01:26:19;10.30;99.90
18779;DHT22;9518;51.720;14.384;2023-06-14T01:28:46;10.20;1.00
18779;DHT22;9518;51.720;14.384;2023-06-14T01:31:18;10.20;1.00
18779;DHT22;9518;51.720;14.384;2023-06-14T01:33:48;10.20;1.00
18779;DHT22;9518;51.720;14.384;2023-06-14T01:36:18;10.10;99.90
18779;DHT22;9518;51.720;14.384;2023-06-14T01:38:46;10.10;1.00
18779;DHT22;9518;51.720;14.384;2023-06-14T01:41:15;10.10;1.00
18779;DHT22;9518;51.720;14.384;2023-06-14T01:43:43;10.10;99.90
18779;DHT22;9518;51.720;14.384;2023-06-14T01:46:11;10.10;1.00
18779;DHT22;9518;51.720;14.384;2023-06-14T01:48:38;10.10;1.00
18779;DHT22;9518;51.720;14.384;2023-06-14T01:51:07;10.00;1.00
18779;DHT22;9518;51.720;14.384;2023-06-14T01:53:34;10.10;99.90
18779;DHT22;9518;51.720;14.384;2023-06-14T01:56:02;10.10;74.20
18779;DHT22;9518;51.720;14.384;2023-06-14T01:58:31;10.10;1.00
18779;DHT22;9518;51.720;14.384;2023-06-14T02:00:58;10.00;44.10
18779;DHT22;9518;51.720;14.384;2023-06-14T02:03:26;10.00;99.90
18779;DHT22;9518;51.720;14.384;2023-06-14T02:05:53;9.90;99.90
18779;DHT22;9518;51.720;14.384;2023-06-14T02:08:21;9.90;1.00
18779;DHT22;9518;51.720;14.384;2023-06-14T02:10:48;9.90;99.90
18779;DHT22;9518;51.720;14.384;2023-06-14T02:13:15;9.90;99.90
18779;DHT22;9518;51.720;14.384;2023-06-14T02:15:43;9.80;1.00
18779;DHT22;9518;51.720;14.384;2023-06-14T02:18:13;9.80;1.00
18779;DHT22;9518;51.720;14.384;2023-06-14T02:20:39;9.70;1.00
18779;DHT22;9518;51.720;14.384;2023-06-14T02:23:06;9.60;1.00
18779;DHT22;9518;51.720;14.384;2023-06-14T02:25:34;9.60;99.90
18779;DHT22;9518;51.720;14.384;2023-06-14T02:28:01;9.50;1.00
18779;DHT22;9518;51.720;14.384;2023-06-14T02:30:30;9.50;1.00
18779;DHT22;9518;51.720;14.384;2023-06-14T02:32:58;9.50;1.00
18779;DHT22;9518;51.720;14.384;2023-06-14T02:35:26;9.50;99.90
18779;DHT22;9518;51.720;14.384;2023-06-14T02:37:53;9.50;99.90
18779;DHT22;9518;51.720;14.384;2023-06-14T02:40:20;9.50;1.00
18779;DHT22;9518;51.720;14.384;2023-06-14T02:42:47;9.50;1.00
18779;DHT22;9518;51.720;14.384;2023-06-14T02:45:17;9.40;1.00
18779;DHT22;9518;51.720;14.384;2023-06-14T02:47:45;9.50;99.90
18779;DHT22;9518;51.720;14.384;2023-06-14T02:50:13;9.50;99.90
18779;DHT22;9518;51.720;14.384;2023-06-14T02:52:41;9.50;1.00
18779;DHT22;9518;51.720;14.384;2023-06-14T02:55:10;9.50;1.00
18779;DHT22;9518;51.720;14.384;2023-06-14T02:57:37;9.50;1.00
18779;DHT22;9518;51.720;14.384;2023-06-14T03:00:05;9.50;1.00
18779;DHT22;9518;51.720;14.384;2023-06-14T03:02:35;9.50;40.30
18779;DHT22;9518;51.720;14.384;2023-06-14T03:05:02;9.50;1.00
18779;DHT22;9518;51.720;14.384;2023-06-14T03:07:31;9.50;1.00
18779;DHT22;9518;51.720;14.384;2023-06-14T03:09:58;9.50;33.10
18779;DHT22;9518;51.720;14.384;2023-06-14T03:12:26;9.50;99.90
18779;DHT22;9518;51.720;14.384;2023-06-14T03:14:53;9.50;99.90
18779;DHT22;9518;51.720;14.384;2023-06-14T03:17:22;9.50;99.90
18779;DHT22;9518;51.720;14.384;2023-06-14T03:19:49;9.50;1.00
18779;DHT22;9518;51.720;14.384;2023-06-14T03:22:16;9.50;99.90
18779;DHT22;9518;51.720;14.384;2023-06-14T03:24:45;9.60;1.00
18779;DHT22;9518;51.720;14.384;2023-06-14T03:27:14;9.60;1.00
18779;DHT22;9518;51.720;14.384;2023-06-14T03:29:41;9.60;99.90
18779;DHT22;9518;51.720;14.384;2023-06-14T03:32:09;9.70;99.90
18779;DHT22;9518;51.720;14.384;2023-06-14T03:34:36;9.80;99.90
18779;DHT22;9518;51.720;14.384;2023-06-14T03:37:04;9.80;1.00
18779;DHT22;9518;51.720;14.384;2023-06-14T03:39:31;9.80;1.00
18779;DHT22;9518;51.720;14.384;2023-06-14T03:41:59;9.90;1.00
18779;DHT22;9518;51.720;14.384;2023-06-14T03:44:26;9.90;1.00
18779;DHT22;9518;51.720;14.384;2023-06-14T03:46:54;10.00;5.00
18779;DHT22;9518;51.720;14.384;2023-06-14T03:49:24;10.00;99.90
18779;DHT22;9518;51.720;14.384;2023-06-14T03:51:51;9.90;1.00
18779;DHT22;9518;51.720;14.384;2023-06-14T03:54:18;9.90;1.00
18779;DHT22;9518;51.720;14.384;2023-06-14T03:56:45;10.00;99.90
18779;DHT22;9518;51.720;14.384;2023-06-14T03:59:14;10.20;1.00
18779;DHT22;9518;51.720;14.384;2023-06-14T04:01:41;10.30;1.00
18779;DHT22;9518;51.720;14.384;2023-06-14T04:04:12;10.50;1.00
18779;DHT22;9518;51.720;14.384;2023-06-14T04:06:39;10.60;1.00
18779;DHT22;9518;51.720;14.384;2023-06-14T04:09:07;10.70;1.00
18779;DHT22;9518;51.720;14.384;2023-06-14T04:11:34;10.90;1.00
18779;DHT22;9518;51.720;14.384;2023-06-14T04:14:02;10.90;99.90
18779;DHT22;9518;51.720;14.384;2023-06-14T04:16:30;11.10;1.00
18779;DHT22;9518;51.720;14.384;2023-06-14T04:18:57;11.20;1.00
18779;DHT22;9518;51.720;14.384;2023-06-14T04:21:24;11.30;1.00
18779;DHT22;9518;51.720;14.384;2023-06-14T04:23:53;11.40;99.90
18779;DHT22;9518;51.720;14.384;2023-06-14T04:26:21;11.50;1.00
18779;DHT22;9518;51.720;14.384;2023-06-14T04:28:49;11.70;1.00
18779;DHT22;9518;51.720;14.384;2023-06-14T04:31:17;11.80;1.00
18779;DHT22;9518;51.720;14.384;2023-06-14T04:33:46;11.90;1.00
18779;DHT22;9518;51.720;14.384;2023-06-14T04:36:13;12.00;99.90
18779;DHT22;9518;51.720;14.384;2023-06-14T04:38:43;12.00;1.00
18779;DHT22;9518;51.720;14.384;2023-06-14T04:41:12;12.00;99.90
18779;DHT22;9518;51.720;14.384;2023-06-14T04:43:39;12.10;99.90
18779;DHT22;9518;51.720;14.384;2023-06-14T04:46:06;12.20;16.10
18779;DHT22;9518;51.720;14.384;2023-06-14T04:48:36;12.40;1.00
18779;DHT22;9518;51.720;14.384;2023-06-14T04:51:07;12.60;1.00
18779;DHT22;9518;51.720;14.384;2023-06-14T04:53:35;12.70;1.00
18779;DHT22;9518;51.720;14.384;2023-06-14T04:56:02;12.90;99.90
18779;DHT22;9518;51.720;14.384;2023-06-14T04:58:33;13.10;99.90
18779;DHT22;9518;51.720;14.384;2023-06-14T05:01:00;13.20;1.00
18779;DHT22;9518;51.720;14.384;2023-06-14T05:03:27;13.30;6.00
18779;DHT22;9518;51.720;14.384;2023-06-14T05:05:56;13.40;1.00
18779;DHT22;9518;51.720;14.384;2023-06-14T05:08:24;13.70;1.00
18779;DHT22;9518;51.720;14.384;2023-06-14T05:10:51;14.20;1.00
18779;DHT22;9518;51.720;14.384;2023-06-14T05:13:19;14.30;1.00
18779;DHT22;9518;51.720;14.384;2023-06-14T05:15:50;14.40;99.90
18779;DHT22;9518;51.720;14.384;2023-06-14T05:18:17;14.40;99.90
18779;DHT22;9518;51.720;14.384;2023-06-14T05:20:44;14.40;99.90
18779;DHT22;9518;51.720;14.384;2023-06-14T05:23:11;14.20;99.90
18779;DHT22;9518;51.720;14.384;2023-06-14T05:25:42;14.10;99.90
18779;DHT22;9518;51.720;14.384;2023-06-14T05:28:10;14.00;99.90
18779;DHT22;9518;51.720;14.384;2023-06-14T05:30:38;13.90;1.00
18779;DHT22;9518;51.720;14.384;2023-06-14T05:33:05;13.90;1.00
18779;DHT22;9518;51.720;14.384;2023-06-14T05:35:32;14.00;1.00
18779;DHT22;9518;51.720;14.384;2023-06-14T05:37:59;14.20;1.00
18779;DHT22;9518;51.720;14.384;2023-06-14T05:40:26;14.30;99.90
18779;DHT22;9518;51.720;14.384;2023-06-14T05:42:55;14.50;99.90
18779;DHT22;9518;51.720;14.384;2023-06-14T05:45:22;14.60;99.90
18779;DHT22;9518;51.720;14.384;2023-06-14T05:47:49;14.90;99.90
18779;DHT22;9518;51.720;14.384;2023-06-14T05:50:16;15.00;99.90
18779;DHT22;9518;51.720;14.384;2023-06-14T05:52:43;15.00;99.90
18779;DHT22;9518;51.720;14.384;2023-06-14T05:55:10;15.10;94.50
18779;DHT22;9518;51.720;14.384;2023-06-14T05:57:38;15.10;99.90
18779;DHT22;9518;51.720;14.384;2023-06-14T06:00:08;15.10;99.90
18779;DHT22;9518;51.720;14.384;2023-06-14T06:02:40;15.00;93.60
18779;DHT22;9518;51.720;14.384;2023-06-14T06:05:07;15.00;70.10
18779;DHT22;9518;51.720;14.384;2023-06-14T06:07:34;14.90;99.90
18779;DHT22;9518;51.720;14.384;2023-06-14T06:10:01;14.80;99.90
18779;DHT22;9518;51.720;14.384;2023-06-14T06:12:28;14.80;99.90
18779;DHT22;9518;51.720;14.384;2023-06-14T06:14:55;14.80;99.90
18779;DHT22;9518;51.720;14.384;2023-06-14T06:17:24;14.70;99.90
18779;DHT22;9518;51.720;14.384;2023-06-14T06:19:51;14.60;99.90
18779;DHT22;9518;51.720;14.384;2023-06-14T06:22:21;14.60;99.90
18779;DHT22;9518;51.720;14.384;2023-06-14T06:24:48;14.70;99.90
18779;DHT22;9518;51.720;14.384;2023-06-14T06:27:15;14.60;99.90
18779;DHT22;9518;51.720;14.384;2023-06-14T06:29:44;14.70;99.90
18779;DHT22;9518;51.720;14.384;2023-06-14T06:32:11;14.80;99.90
18779;DHT22;9518;51.720;14.384;2023-06-14T06:34:39;14.70;99.90
18779;DHT22;9518;51.720;14.384;2023-06-14T06:37:06;14.70;99.90
18779;DHT22;9518;51.720;14.384;2023-06-14T06:39:34;14.70;99.90
18779;DHT22;9518;51.720;14.384;2023-06-14T06:42:01;14.80;99.90
18779;DHT22;9518;51.720;14.384;2023-06-14T06:44:28;14.90;99.90
18779;DHT22;9518;51.720;14.384;2023-06-14T06:46:55;15.00;99.90
18779;DHT22;9518;51.720;14.384;2023-06-14T06:49:22;15.20;40.20
18779;DHT22;9518;51.720;14.384;2023-06-14T06:52:01;15.40;31.40
18779;DHT22;9518;51.720;14.384;2023-06-14T06:54:28;15.60;1.00
18779;DHT22;9518;51.720;14.384;2023-06-14T06:56:55;15.80;1.00
18779;DHT22;9518;51.720;14.384;2023-06-14T06:59:22;16.00;1.00
18779;DHT22;9518;51.720;14.384;2023-06-14T07:01:49;16.20;1.00
18779;DHT22;9518;51.720;14.384;2023-06-14T07:04:16;16.50;1.00
18779;DHT22;9518;51.720;14.384;2023-06-14T07:06:43;16.80;1.00
18779;DHT22;9518;51.720;14.384;2023-06-14T07:09:12;17.10;1.00
18779;DHT22;9518;51.720;14.384;2023-06-14T07:11:41;17.40;1.00
18779;DHT22;9518;51.720;14.384;2023-06-14T07:14:08;17.60;1.00
18779;DHT22;9518;51.720;14.384;2023-06-14T07:16:35;17.90;1.00
18779;DHT22;9518;51.720;14.384;2023-06-14T07:19:02;18.10;1.00
18779;DHT22;9518;51.720;14.384;2023-06-14T07:21:30;18.10;1.00
18779;DHT22;9518;51.720;14.384;2023-06-14T07:23:57;18.20;1.00
18779;DHT22;9518;51.720;14.384;2023-06-14T07:26:25;18.30;1.00
18779;DHT22;9518;51.720;14.384;2023-06-14T07:28:52;18.50;1.00
18779;DHT22;9518;51.720;14.384;2023-06-14T07:31:19;18.50;1.00
18779;DHT22;9518;51.720;14.384;2023-06-14T07:33:46;18.60;1.00
18779;DHT22;9518;51.720;14.384;2023-06-14T07:36:13;18.60;1.00
18779;DHT22;9518;51.720;14.384;2023-06-14T07:38:40;18.70;1.00
18779;DHT22;9518;51.720;14.384;2023-06-14T07:41:07;18.90;1.00
18779;DHT22;9518;51.720;14.384;2023-06-14T07:43:36;19.00;1.00
18779;DHT22;9518;51.720;14.384;2023-06-14T07:46:05;19.10;1.00
18779;DHT22;9518;51.720;14.384;2023-06-14T07:48:32;19.20;1.00
18779;DHT22;9518;51.720;14.384;2023-06-14T07:50:59;19.40;1.00
18779;DHT22;9518;51.720;14.384;2023-06-14T07:53:26;19.70;1.00
18779;DHT22;9518;51.720;14.384;2023-06-14T07:55:53;19.80;1.00
18779;DHT22;9518;51.720;14.384;2023-06-14T07:58:20;20.10;1.00
18779;DHT22;9518;51.720;14.384;2023-06-14T08:00:49;20.40;1.00
18779;DHT22;9518;51.720;14.384;2023-06-14T08:03:17;20.40;1.00
18779;DHT22;9518;51.720;14.384;2023-06-14T08:05:45;20.60;1.00
18779;DHT22;9518;51.720;14.384;2023-06-14T08:08:12;20.80;1.00
18779;DHT22;9518;51.720;14.384;2023-06-14T08:10:40;20.80;1.00
18779;DHT22;9518;51.720;14.384;2023-06-14T08:13:07;20.90;1.00
18779;DHT22;9518;51.720;14.384;2023-06-14T08:15:35;20.80;1.00
18779;DHT22;9518;51.720;14.384;2023-06-14T08:18:06;21.00;1.00
18779;DHT22;9518;51.720;14.384;2023-06-14T08:20:33;21.20;1.00
18779;DHT22;9518;51.720;14.384;2023-06-14T08:23:02;21.70;1.00
18779;DHT22;9518;51.720;14.384;2023-06-14T08:25:29;21.40;1.00
18779;DHT22;9518;51.720;14.384;2023-06-14T08:27:56;21.40;1.00
18779;DHT22;9518;51.720;14.384;2023-06-14T08:30:23;21.40;1.00
18779;DHT22;9518;51.720;14.384;2023-06-14T08:32:50;21.50;1.00
18779;DHT22;9518;51.720;14.384;2023-06-14T08:35:19;21.60;1.00
18779;DHT22;9518;51.720;14.384;2023-06-14T08:37:46;21.40;1.00
18779;DHT22;9518;51.720;14.384;2023-06-14T08:40:19;21.30;1.00
18779;DHT22;9518;51.720;14.384;2023-06-14T08:42:50;21.50;1.00
18779;DHT22;9518;51.720;14.384;2023-06-14T08:45:18;21.50;1.00
18779;DHT22;9518;51.720;14.384;2023-06-14T08:47:45;21.50;1.00
18779;DHT22;9518;51.720;14.384;2023-06-14T08:50:20;21.10;1.00
18779;DHT22;9518;51.720;14.384;2023-06-14T08:52:48;20.70;1.00
18779;DHT22;9518;51.720;14.384;2023-06-14T08:55:18;20.60;1.00
18779;DHT22;9518;51.720;14.384;2023-06-14T08:57:46;20.80;1.00
18779;DHT22;9518;51.720;14.384;2023-06-14T09:00:15;20.90;1.00
18779;DHT22;9518;51.720;14.384;2023-06-14T09:02:42;21.40;1.00
18779;DHT22;9518;51.720;14.384;2023-06-14T09:05:10;21.50;1.00
18779;DHT22;9518;51.720;14.384;2023-06-14T09:07:40;21.40;1.00
18779;DHT22;9518;51.720;14.384;2023-06-14T09:10:09;21.50;1.00
18779;DHT22;9518;51.720;14.384;2023-06-14T09:12:37;21.50;1.00
18779;DHT22;9518;51.720;14.384;2023-06-14T09:15:06;21.10;1.00
18779;DHT22;9518;51.720;14.384;2023-06-14T09:17:34;20.90;1.00
18779;DHT22;9518;51.720;14.384;2023-06-14T09:20:01;20.70;1.00
18779;DHT22;9518;51.720;14.384;2023-06-14T09:22:32;20.80;1.00
18779;DHT22;9518;51.720;14.384;2023-06-14T09:25:02;20.70;1.00
18779;DHT22;9518;51.720;14.384;2023-06-14T09:27:30;21.10;1.00
18779;DHT22;9518;51.720;14.384;2023-06-14T09:29:57;21.50;1.00
18779;DHT22;9518;51.720;14.384;2023-06-14T09:32:25;21.60;1.00
18779;DHT22;9518;51.720;14.384;2023-06-14T09:34:52;21.70;1.00
18779;DHT22;9518;51.720;14.384;2023-06-14T09:37:29;21.50;1.00
18779;DHT22;9518;51.720;14.384;2023-06-14T09:39:56;21.00;1.00
18779;DHT22;9518;51.720;14.384;2023-06-14T09:42:25;20.80;1.00
18779;DHT22;9518;51.720;14.384;2023-06-14T09:44:55;20.40;1.00
18779;DHT22;9518;51.720;14.384;2023-06-14T09:47:23;20.20;1.00
18779;DHT22;9518;51.720;14.384;2023-06-14T09:49:51;20.20;1.00
18779;DHT22;9518;51.720;14.384;2023-06-14T09:52:21;20.20;1.00
18779;DHT22;9518;51.720;14.384;2023-06-14T09:54:48;20.40;1.00
18779;DHT22;9518;51.720;14.384;2023-06-14T09:57:16;20.50;1.00
18779;DHT22;9518;51.720;14.384;2023-06-14T09:59:46;20.70;1.00
18779;DHT22;9518;51.720;14.384;2023-06-14T10:02:21;20.60;1.00
18779;DHT22;9518;51.720;14.384;2023-06-14T10:04:53;21.30;1.00
18779;DHT22;9518;51.720;14.384;2023-06-14T10:07:26;21.90;1.00
18779;DHT22;9518;51.720;14.384;2023-06-14T10:09:56;22.00;1.00
18779;DHT22;9518;51.720;14.384;2023-06-14T10:12:23;21.70;1.00
18779;DHT22;9518;51.720;14.384;2023-06-14T10:14:51;21.60;1.00
18779;DHT22;9518;51.720;14.384;2023-06-14T10:17:23;21.10;1.00
18779;DHT22;9518;51.720;14.384;2023-06-14T10:19:56;20.60;1.00
18779;DHT22;9518;51.720;14.384;2023-06-14T10:22:34;20.00;1.00
18779;DHT22;9518;51.720;14.384;2023-06-14T10:25:03;19.90;1.00
18779;DHT22;9518;51.720;14.384;2023-06-14T10:27:37;19.90;1.00
18779;DHT22;9518;51.720;14.384;2023-06-14T10:30:08;19.80;1.00
18779;DHT22;9518;51.720;14.384;2023-06-14T10:32:35;20.00;1.00
18779;DHT22;9518;51.720;14.384;2023-06-14T10:35:22;20.40;1.00
18779;DHT22;9518;51.720;14.384;2023-06-14T10:37:49;20.80;1.00
18779;DHT22;9518;51.720;14.384;2023-06-14T10:40:30;21.10;1.00
18779;DHT22;9518;51.720;14.384;2023-06-14T10:42:57;21.20;1.00
18779;DHT22;9518;51.720;14.384;2023-06-14T10:45:25;21.10;1.00
18779;DHT22;9518;51.720;14.384;2023-06-14T10:47:52;21.00;1.00
18779;DHT22;9518;51.720;14.384;2023-06-14T10:50:27;21.30;1.00
18779;DHT22;9518;51.720;14.384;2023-06-14T10:52:55;21.20;1.00
18779;DHT22;9518;51.720;14.384;2023-06-14T10:55:22;21.00;1.00
18779;DHT22;9518;51.720;14.384;2023-06-14T10:57:51;20.90;1.00
18779;DHT22;9518;51.720;14.384;2023-06-14T11:00:22;20.80;1.00
18779;DHT22;9518;51.720;14.384;2023-06-14T11:03:27;20.60;1.00
18779;DHT22;9518;51.720;14.384;2023-06-14T11:05:58;20.40;1.00
18779;DHT22;9518;51.720;14.384;2023-06-14T11:09:00;20.30;1.00
18779;DHT22;9518;51.720;14.384;2023-06-14T11:11:32;20.20;1.00
18779;DHT22;9518;51.720;14.384;2023-06-14T11:14:00;20.10;1.00
18779;DHT22;9518;51.720;14.384;2023-06-14T11:16:27;19.80;1.00
18779;DHT22;9518;51.720;14.384;2023-06-14T11:18:56;19.40;1.00
18779;DHT22;9518;51.720;14.384;2023-06-14T11:21:24;19.30;1.00
18779;DHT22;9518;51.720;14.384;2023-06-14T11:23:56;19.40;1.00
18779;DHT22;9518;51.720;14.384;2023-06-14T11:26:27;19.80;1.00
18779;DHT22;9518;51.720;14.384;2023-06-14T11:28:59;20.20;1.00
18779;DHT22;9518;51.720;14.384;2023-06-14T11:31:27;20.60;1.00
18779;DHT22;9518;51.720;14.384;2023-06-14T11:33:56;21.10;1.00
18779;DHT22;9518;51.720;14.384;2023-06-14T11:36:27;22.20;1.00
18779;DHT22;9518;51.720;14.384;2023-06-14T11:39:00;24.30;1.00
18779;DHT22;9518;51.720;14.384;2023-06-14T11:41:38;25.80;1.00
18779;DHT22;9518;51.720;14.384;2023-06-14T11:44:05;26.80;1.00
18779;DHT22;9518;51.720;14.384;2023-06-14T11:46:33;26.50;1.00
18779;DHT22;9518;51.720;14.384;2023-06-14T11:49:02;26.90;1.00
18779;DHT22;9518;51.720;14.384;2023-06-14T11:51:30;26.60;1.00
18779;DHT22;9518;51.720;14.384;2023-06-14T11:53:58;26.60;1.00
18779;DHT22;9518;51.720;14.384;2023-06-14T11:56:25;27.30;1.00
18779;DHT22;9518;51.720;14.384;2023-06-14T11:58:52;27.10;1.00
18779;DHT22;9518;51.720;14.384;2023-06-14T12:01:22;26.50;1.00
18779;DHT22;9518;51.720;14.384;2023-06-14T12:03:49;26.30;1.00
18779;DHT22;9518;51.720;14.384;2023-06-14T12:06:26;26.80;1.00
18779;DHT22;9518;51.720;14.384;2023-06-14T12:08:57;25.90;1.00
18779;DHT22;9518;51.720;14.384;2023-06-14T12:11:31;25.60;1.00
18779;DHT22;9518;51.720;14.384;2023-06-14T12:13:58;25.80;1.00
18779;DHT22;9518;51.720;14.384;2023-06-14T12:16:30;26.10;1.00
18779;DHT22;9518;51.720;14.384;2023-06-14T12:19:00;26.90;1.00
18779;DHT22;9518;51.720;14.384;2023-06-14T12:21:29;26.80;1.00
18779;DHT22;9518;51.720;14.384;2023-06-14T12:23:56;26.40;1.00
18779;DHT22;9518;51.720;14.384;2023-06-14T12:26:25;26.90;1.00
18779;DHT22;9518;51.720;14.384;2023-06-14T12:28:53;27.00;1.00
18779;DHT22;9518;51.720;14.384;2023-06-14T12:31:20;26.50;1.00
18779;DHT22;9518;51.720;14.384;2023-06-14T12:33:50;25.70;1.00
18779;DHT22;9518;51.720;14.384;2023-06-14T12:36:17;25.50;1.00
18779;DHT22;9518;51.720;14.384;2023-06-14T12:38:45;26.90;1.00
18779;DHT22;9518;51.720;14.384;2023-06-14T12:41:12;28.10;1.00
18779;DHT22;9518;51.720;14.384;2023-06-14T12:43:40;29.20;1.00
18779;DHT22;9518;51.720;14.384;2023-06-14T12:46:07;29.70;1.00
18779;DHT22;9518;51.720;14.384;2023-06-14T12:48:34;30.50;1.00
18779;DHT22;9518;51.720;14.384;2023-06-14T12:51:01;31.00;1.00
18779;DHT22;9518;51.720;14.384;2023-06-14T12:53:28;30.60;1.00
18779;DHT22;9518;51.720;14.384;2023-06-14T12:55:57;30.30;1.00
18779;DHT22;9518;51.720;14.384;2023-06-14T12:58:24;30.30;1.00
18779;DHT22;9518;51.720;14.384;2023-06-14T13:00:51;31.30;1.00
18779;DHT22;9518;51.720;14.384;2023-06-14T13:03:18;31.90;1.00
18779;DHT22;9518;51.720;14.384;2023-06-14T13:05:45;32.00;1.00
18779;DHT22;9518;51.720;14.384;2023-06-14T13:08:12;32.40;1.00
18779;DHT22;9518;51.720;14.384;2023-06-14T13:10:39;32.70;99.90
18779;DHT22;9518;51.720;14.384;2023-06-14T13:13:07;33.00;99.90
18779;DHT22;9518;51.720;14.384;2023-06-14T13:15:34;32.90;99.90
18779;DHT22;9518;51.720;14.384;2023-06-14T13:18:01;31.90;99.90
18779;DHT22;9518;51.720;14.384;2023-06-14T13:20:29;30.60;99.90
18779;DHT22;9518;51.720;14.384;2023-06-14T13:22:56;29.20;99.90
18779;DHT22;9518;51.720;14.384;2023-06-14T13:25:23;27.90;99.90
18779;DHT22;9518;51.720;14.384;2023-06-14T13:27:50;27.50;99.90
18779;DHT22;9518;51.720;14.384;2023-06-14T13:30:18;27.10;99.90
18779;DHT22;9518;51.720;14.384;2023-06-14T13:32:45;26.70;99.90
18779;DHT22;9518;51.720;14.384;2023-06-14T13:35:12;26.60;99.90
18779;DHT22;9518;51.720;14.384;2023-06-14T13:37:39;26.20;99.90
18779;DHT22;9518;51.720;14.384;2023-06-14T13:40:07;26.10;99.90
18779;DHT22;9518;51.720;14.384;2023-06-14T13:42:34;26.50;99.90
18779;DHT22;9518;51.720;14.384;2023-06-14T13:45:02;26.20;99.90
18779;DHT22;9518;51.720;14.384;2023-06-14T13:47:31;26.00;99.90
18779;DHT22;9518;51.720;14.384;2023-06-14T13:49:58;26.00;99.90
18779;DHT22;9518;51.720;14.384;2023-06-14T13:52:25;27.60;99.90
18779;DHT22;9518;51.720;14.384;2023-06-14T13:54:52;29.50;99.90
18779;DHT22;9518;51.720;14.384;2023-06-14T13:57:19;30.60;99.90
18779;DHT22;9518;51.720;14.384;2023-06-14T13:59:46;31.30;99.90
18779;DHT22;9518;51.720;14.384;2023-06-14T14:02:13;30.50;99.90
18779;DHT22;9518;51.720;14.384;2023-06-14T14:04:42;30.90;99.90
18779;DHT22;9518;51.720;14.384;2023-06-14T14:07:09;30.90;99.90
18779;DHT22;9518;51.720;14.384;2023-06-14T14:09:36;30.00;99.90
18779;DHT22;9518;51.720;14.384;2023-06-14T14:12:05;29.00;99.90
18779;DHT22;9518;51.720;14.384;2023-06-14T14:14:32;27.50;99.90
18779;DHT22;9518;51.720;14.384;2023-06-14T14:16:59;26.70;99.90
18779;DHT22;9518;51.720;14.384;2023-06-14T14:19:26;26.10;99.90
18779;DHT22;9518;51.720;14.384;2023-06-14T14:21:55;25.70;99.90
18779;DHT22;9518;51.720;14.384;2023-06-14T14:24:22;25.20;99.90
18779;DHT22;9518;51.720;14.384;2023-06-14T14:26:49;24.80;99.90
18779;DHT22;9518;51.720;14.384;2023-06-14T14:29:19;24.50;99.90
18779;DHT22;9518;51.720;14.384;2023-06-14T14:31:46;24.80;99.90
18779;DHT22;9518;51.720;14.384;2023-06-14T14:34:13;25.30;99.90
18779;DHT22;9518;51.720;14.384;2023-06-14T14:36:40;26.30;99.90
18779;DHT22;9518;51.720;14.384;2023-06-14T14:39:09;26.80;99.90
18779;DHT22;9518;51.720;14.384;2023-06-14T14:41:36;26.60;99.90
18779;DHT22;9518;51.720;14.384;2023-06-14T14:44:04;26.10;99.90
18779;DHT22;9518;51.720;14.384;2023-06-14T14:46:31;26.00;99.90
18779;DHT22;9518;51.720;14.384;2023-06-14T14:48:59;25.50;99.90
18779;DHT22;9518;51.720;14.384;2023-06-14T14:51:26;25.50;99.90
18779;DHT22;9518;51.720;14.384;2023-06-14T14:53:53;25.50;99.90
18779;DHT22;9518;51.720;14.384;2023-06-14T14:56:22;25.30;99.90
18779;DHT22;9518;51.720;14.384;2023-06-14T14:58:49;25.10;99.90
18779;DHT22;9518;51.720;14.384;2023-06-14T15:01:16;25.20;99.90
18779;DHT22;9518;51.720;14.384;2023-06-14T15:03:43;26.30;99.90
18779;DHT22;9518;51.720;14.384;2023-06-14T15:06:11;28.00;99.90
18779;DHT22;9518;51.720;14.384;2023-06-14T15:08:38;28.40;99.90
18779;DHT22;9518;51.720;14.384;2023-06-14T15:11:05;29.00;99.90
18779;DHT22;9518;51.720;14.384;2023-06-14T15:13:33;30.40;99.90
18779;DHT22;9518;51.720;14.384;2023-06-14T15:16:01;31.90;99.90
18779;DHT22;9518;51.720;14.384;2023-06-14T15:18:28;33.40;99.90
18779;DHT22;9518;51.720;14.384;2023-06-14T15:20:55;33.30;99.90
18779;DHT22;9518;51.720;14.384;2023-06-14T15:23:22;33.70;99.90
18779;DHT22;9518;51.720;14.384;2023-06-14T15:25:49;33.50;99.90
18779;DHT22;9518;51.720;14.384;2023-06-14T15:28:17;34.30;99.90
18779;DHT22;9518;51.720;14.384;2023-06-14T15:30:46;35.00;99.90
18779;DHT22;9518;51.720;14.384;2023-06-14T15:33:13;35.00;99.90
18779;DHT22;9518;51.720;14.384;2023-06-14T15:35:40;35.70;99.90
18779;DHT22;9518;51.720;14.384;2023-06-14T15:38:07;36.30;99.90
18779;DHT22;9518;51.720;14.384;2023-06-14T15:40:34;36.70;99.90
18779;DHT22;9518;51.720;14.384;2023-06-14T15:43:00;37.10;99.90
18779;DHT22;9518;51.720;14.384;2023-06-14T15:45:29;36.60;99.90
18779;DHT22;9518;51.720;14.384;2023-06-14T15:47:59;36.50;99.90
18779;DHT22;9518;51.720;14.384;2023-06-14T15:50:26;36.00;99.90